Gibsonburg, Ohio
Current Conditions -  °F | °C
As of 11:06 PM on Thursday 27 Nov 2014 (Local Time) from KTDZ Reporting Station
Broken Clouds Broken Clouds  
Wind Chill: 13°   Ceiling: 6000
Heat Index: 26°   Visibility: 10mi
Dew Point: 17°   Wind: 17mph
Humidity: 69%   Direction: 320°NW
Pressure: 30.33"   Gusts: NA
Location:  41.38°N, 83.32°W
Report Text: KTDZ 280406Z AUTO 32015KT 10SM SCT026 BKN060 M03/M08 A3033 RMK AO2 T10331083 TSNO
Loading
Personal Weather Stations






























Interactive Weather Map New forecast layout! Learn more

10-Day Weather Forecast

Advertisements
Track Severe Weather on mobile